Time;durP1;ratioP1;P1;durP2;ratioP2;P2;SDS_P1;SDS_P2;PMS_P1;PMS_P2;Temp;Humidity;BMP_temperature;BMP_pressure;BME280_temperature;BME280_humidity;BME280_pressure;Samples;Min_cycle;Max_cycle;Signal;HPM_P1;HPM_P2
2022/10/22 00:02:26;;;;;;;12.13;6.90;;;11.40;99.90;;;;;;5010806;28;20728;-69
2022/10/22 00:04:52;;;;;;;11.57;6.83;;;11.40;99.90;;;;;;5019079;28;20064;-69
2022/10/22 00:07:19;;;;;;;9.20;6.67;;;11.40;99.90;;;;;;5014828;28;20625;-70
2022/10/22 00:09:45;;;;;;;9.73;7.07;;;11.40;99.90;;;;;;5021154;28;20361;-70
2022/10/22 00:12:12;;;;;;;11.03;7.40;;;11.40;99.90;;;;;;5017062;28;20305;-69
2022/10/22 00:14:37;;;;;;;15.03;7.77;;;11.40;99.90;;;;;;5014626;28;20281;-69
2022/10/22 00:17:03;;;;;;;13.57;6.70;;;11.30;99.90;;;;;;5012614;28;20288;-69
2022/10/22 00:19:29;;;;;;;12.63;7.43;;;11.30;99.90;;;;;;4993757;28;20053;-69
2022/10/22 00:21:55;;;;;;;14.00;7.67;;;11.40;99.90;;;;;;5017061;28;20728;-70
2022/10/22 00:24:21;;;;;;;11.57;7.03;;;11.40;99.90;;;;;;5020205;28;20045;-70
2022/10/22 00:26:46;;;;;;;15.67;7.40;;;11.40;99.90;;;;;;5008048;28;20407;-70
2022/10/22 00:29:12;;;;;;;10.33;7.50;;;11.40;99.90;;;;;;4988576;28;20034;-70
2022/10/22 00:31:38;;;;;;;12.47;7.40;;;11.30;99.90;;;;;;4986425;28;20053;-70
2022/10/22 00:34:03;;;;;;;11.43;7.60;;;11.30;99.90;;;;;;4980780;28;20046;-70
2022/10/22 00:36:29;;;;;;;12.20;7.60;;;11.30;99.90;;;;;;5002720;28;20042;-70
2022/10/22 00:38:55;;;;;;;13.67;7.43;;;11.30;99.90;;;;;;5005428;28;20091;-70
2022/10/22 00:41:20;;;;;;;12.73;7.67;;;11.30;99.90;;;;;;5005166;28;20046;-70
2022/10/22 00:44:01;;;;;;;14.10;7.67;;;11.30;99.90;;;;;;5004815;28;20453;-70
2022/10/22 00:46:27;;;;;;;11.93;6.77;;;11.30;99.90;;;;;;5002421;28;20504;-70
2022/10/22 00:48:54;;;;;;;11.83;7.30;;;11.20;99.90;;;;;;5020356;28;20783;-70
2022/10/22 00:51:23;;;;;;;13.30;7.30;;;11.20;99.90;;;;;;4995519;28;20581;-70
2022/10/22 00:53:56;;;;;;;13.47;7.47;;;11.20;99.90;;;;;;5016890;28;20299;-70
2022/10/22 00:56:25;;;;;;;11.63;7.43;;;11.20;99.90;;;;;;5009790;28;20276;-70
2022/10/22 00:58:57;;;;;;;11.93;7.60;;;11.20;99.90;;;;;;5001752;28;20326;-70
2022/10/22 01:01:29;;;;;;;10.63;7.20;;;11.30;99.90;;;;;;5011634;28;20295;-70
2022/10/22 01:03:55;;;;;;;11.43;7.53;;;11.30;99.90;;;;;;5013661;28;20608;-70
2022/10/22 01:06:27;;;;;;;13.07;8.17;;;11.30;99.90;;;;;;5010723;28;20287;-70
2022/10/22 01:09:30;;;;;;;14.13;7.03;;;11.30;99.90;;;;;;5016785;28;20578;-70
2022/10/22 01:12:11;;;;;;;11.43;7.80;;;11.30;99.90;;;;;;5007768;28;20316;-70
2022/10/22 01:15:13;;;;;;;11.23;7.63;;;11.30;99.90;;;;;;5017659;28;20488;-70
2022/10/22 01:18:05;;;;;;;19.43;8.37;;;11.30;99.90;;;;;;5016094;28;20691;-70
2022/10/22 01:20:58;;;;;;;12.50;7.40;;;11.40;99.90;;;;;;5014664;28;20844;-70
2022/10/22 01:23:42;;;;;;;16.83;8.03;;;11.40;99.90;;;;;;5013730;28;20280;-70
2022/10/22 01:26:20;;;;;;;11.70;7.47;;;11.50;99.90;;;;;;5010088;28;20747;-70
2022/10/22 01:29:16;;;;;;;13.37;7.40;;;11.60;99.90;;;;;;5009506;28;20284;-70
2022/10/22 01:31:51;;;;;;;12.30;7.63;;;11.60;99.90;;;;;;5011148;28;20285;-70
2022/10/22 01:34:18;;;;;;;11.43;7.30;;;11.70;99.90;;;;;;4996983;28;20277;-70
2022/10/22 01:36:47;;;;;;;10.57;7.50;;;11.70;99.90;;;;;;5013158;28;20310;-70
2022/10/22 01:39:15;;;;;;;13.20;7.73;;;11.80;99.90;;;;;;5010277;28;20623;-70
2022/10/22 01:41:46;;;;;;;11.03;7.20;;;11.80;99.90;;;;;;5003496;28;20361;-70
2022/10/22 01:44:28;;;;;;;12.23;7.23;;;11.80;99.90;;;;;;5004431;28;20277;-70
2022/10/22 01:47:05;;;;;;;13.43;6.73;;;11.90;99.90;;;;;;5003787;28;20339;-70
2022/10/22 01:49:51;;;;;;;11.27;7.07;;;11.90;99.90;;;;;;5003870;28;20281;-70
2022/10/22 01:52:39;;;;;;;13.18;7.55;;;12.00;99.90;;;;;;5013045;28;20304;-70
2022/10/22 01:55:13;;;;;;;12.50;7.07;;;12.00;99.90;;;;;;4992898;28;20045;-70
2022/10/22 01:57:52;;;;;;;10.90;6.97;;;12.00;99.90;;;;;;5006962;28;20304;-70
2022/10/22 02:00:18;;;;;;;15.00;6.70;;;12.00;99.90;;;;;;5012586;28;20049;-70
2022/10/22 02:02:58;;;;;;;12.20;6.37;;;12.10;99.90;;;;;;5004023;28;20335;-70
2022/10/22 02:05:46;;;;;;;12.27;6.70;;;12.10;99.90;;;;;;4986698;28;20327;-70
2022/10/22 02:08:16;;;;;;;11.43;6.70;;;12.10;99.90;;;;;;5003547;28;20289;-70
2022/10/22 02:10:45;;;;;;;10.23;6.33;;;12.20;99.90;;;;;;5004021;28;20837;-70
2022/10/22 02:13:35;;;;;;;13.57;6.60;;;12.20;99.90;;;;;;4987392;28;20812;-70
2022/10/22 02:16:03;;;;;;;13.33;6.40;;;12.20;99.90;;;;;;4994598;28;20281;-70
2022/10/22 02:18:31;;;;;;;12.10;6.13;;;12.20;99.90;;;;;;5003475;28;20781;-70
2022/10/22 02:20:58;;;;;;;12.13;6.70;;;12.20;99.90;;;;;;5004238;28;20634;-70
2022/10/22 02:23:25;;;;;;;11.07;6.50;;;12.20;99.90;;;;;;4987347;28;20944;-70
2022/10/22 02:26:10;;;;;;;13.63;5.93;;;12.20;99.90;;;;;;5003536;28;20370;-70
2022/10/22 02:28:44;;;;;;;12.27;6.05;;;12.20;99.90;;;;;;4987578;28;20365;-70
2022/10/22 02:31:18;;;;;;;12.33;6.20;;;12.20;99.90;;;;;;5004012;28;20132;-70
2022/10/22 02:33:47;;;;;;;10.10;5.67;;;12.20;99.90;;;;;;5003430;28;20800;-70
2022/10/22 02:36:15;;;;;;;12.83;6.63;;;12.20;99.90;;;;;;4986609;28;20284;-70
2022/10/22 02:38:41;;;;;;;12.70;6.10;;;12.30;99.90;;;;;;5003413;28;20285;-70
2022/10/22 02:41:07;;;;;;;12.80;6.83;;;12.30;99.90;;;;;;5001198;28;20273;-70
2022/10/22 02:43:44;;;;;;;12.50;6.40;;;12.30;99.90;;;;;;5003441;28;20296;-70
2022/10/22 02:46:10;;;;;;;10.50;6.43;;;12.40;99.90;;;;;;5003003;28;20099;-70
2022/10/22 02:48:36;;;;;;;16.97;6.50;;;12.40;99.90;;;;;;5016679;28;20530;-70
2022/10/22 02:51:02;;;;;;;11.57;5.53;;;12.40;99.90;;;;;;4985960;28;20773;-70
2022/10/22 02:53:28;;;;;;;14.00;6.03;;;12.40;99.90;;;;;;4986871;28;20312;-70
2022/10/22 02:55:53;;;;;;;8.70;5.53;;;12.40;99.90;;;;;;5003293;28;20493;-70
2022/10/22 02:58:19;;;;;;;9.47;5.40;;;12.40;99.90;;;;;;4986407;28;20042;-70
2022/10/22 03:00:45;;;;;;;10.37;6.40;;;12.40;99.90;;;;;;5009894;28;20117;-70
2022/10/22 03:03:10;;;;;;;11.33;5.30;;;12.40;99.90;;;;;;5014642;28;20053;-70
2022/10/22 03:05:36;;;;;;;10.10;5.27;;;12.40;99.90;;;;;;4991188;28;20053;-70
2022/10/22 03:08:02;;;;;;;8.70;5.67;;;12.40;99.90;;;;;;5002012;28;20037;-70
2022/10/22 03:10:28;;;;;;;10.60;5.30;;;12.40;99.90;;;;;;5008263;28;20089;-70
2022/10/22 03:12:53;;;;;;;11.23;5.70;;;12.40;99.90;;;;;;5007002;28;20124;-70
2022/10/22 03:15:19;;;;;;;13.07;5.50;;;12.40;99.90;;;;;;5006694;28;20037;-70
2022/10/22 03:17:45;;;;;;;8.97;5.10;;;12.40;99.90;;;;;;4973834;28;20034;-70
2022/10/22 03:20:10;;;;;;;9.90;5.17;;;12.40;99.90;;;;;;5007063;28;20216;-70
2022/10/22 03:22:39;;;;;;;10.80;5.03;;;12.40;99.90;;;;;;5006713;28;20052;-70
2022/10/22 03:25:09;;;;;;;11.80;5.17;;;12.40;99.90;;;;;;5023001;28;20045;-70
2022/10/22 03:27:37;;;;;;;10.23;5.73;;;12.50;99.90;;;;;;5006500;28;20292;-70
2022/10/22 03:30:04;;;;;;;11.77;4.90;;;12.50;99.90;;;;;;5006531;28;20288;-70
2022/10/22 03:32:29;;;;;;;9.80;4.87;;;12.50;99.90;;;;;;5012527;28;20308;-70
2022/10/22 03:34:55;;;;;;;11.37;5.00;;;12.40;99.90;;;;;;5006268;28;20423;-70
2022/10/22 03:37:22;;;;;;;8.30;4.60;;;12.40;99.90;;;;;;5015043;28;20046;-70
2022/10/22 03:39:48;;;;;;;11.77;4.70;;;12.40;99.90;;;;;;5006325;28;20048;-70
2022/10/22 03:42:15;;;;;;;9.00;4.90;;;12.40;99.90;;;;;;5006241;28;20280;-70
2022/10/22 03:44:41;;;;;;;10.87;4.70;;;12.40;99.90;;;;;;5005925;28;20377;-70
2022/10/22 03:47:07;;;;;;;9.17;5.13;;;12.40;99.90;;;;;;5006321;28;20773;-70
2022/10/22 03:49:32;;;;;;;9.20;4.60;;;12.40;99.90;;;;;;4988232;28;20042;-70
2022/10/22 03:52:10;;;;;;;8.57;4.37;;;12.30;99.90;;;;;;4992570;28;20305;-70
2022/10/22 03:54:37;;;;;;;8.20;4.60;;;12.30;99.90;;;;;;4989682;28;20116;-70
2022/10/22 03:57:06;;;;;;;7.90;4.17;;;12.30;99.90;;;;;;5003405;28;20342;-70
2022/10/22 03:59:45;;;;;;;9.30;5.07;;;12.20;99.90;;;;;;5007481;28;20350;-70
2022/10/22 04:02:12;;;;;;;9.60;4.40;;;12.20;99.90;;;;;;5006753;28;20379;-70
2022/10/22 04:04:38;;;;;;;8.03;4.80;;;12.20;99.90;;;;;;5022004;28;20285;-70
2022/10/22 04:07:05;;;;;;;10.77;4.67;;;12.20;99.90;;;;;;4990328;28;20364;-70
2022/10/22 04:09:34;;;;;;;10.67;4.03;;;12.10;99.90;;;;;;5007757;28;20780;-70
2022/10/22 04:12:00;;;;;;;11.37;4.53;;;12.10;99.90;;;;;;5006851;28;20344;-70
2022/10/22 04:14:26;;;;;;;10.73;4.27;;;12.10;99.90;;;;;;5021730;28;20312;-70
2022/10/22 04:16:52;;;;;;;10.53;4.37;;;12.10;99.90;;;;;;5005547;28;20041;-70
2022/10/22 04:19:17;;;;;;;11.90;4.90;;;12.10;99.90;;;;;;4988848;28;20499;-70
2022/10/22 04:21:43;;;;;;;9.27;4.40;;;12.10;99.90;;;;;;5006193;28;20084;-70
2022/10/22 04:24:09;;;;;;;16.67;6.17;;;12.10;99.90;;;;;;5005406;28;20049;-69
2022/10/22 04:26:35;;;;;;;8.93;4.20;;;12.10;99.90;;;;;;5004995;28;20476;-70
2022/10/22 04:29:00;;;;;;;11.13;4.90;;;12.10;99.90;;;;;;4989002;28;20061;-70
2022/10/22 04:31:26;;;;;;;12.67;4.50;;;12.10;99.90;;;;;;5004235;28;20514;-70
2022/10/22 04:33:57;;;;;;;10.33;4.83;;;12.10;99.90;;;;;;5018138;28;20121;-70
2022/10/22 04:36:23;;;;;;;11.10;4.67;;;12.10;99.90;;;;;;5014502;28;20092;-70
2022/10/22 04:38:57;;;;;;;12.23;4.97;;;12.10;99.90;;;;;;5005310;28;20281;-69
2022/10/22 04:41:30;;;;;;;9.47;4.70;;;12.10;99.90;;;;;;5014523;28;20428;-69
2022/10/22 04:43:56;;;;;;;9.47;4.47;;;12.10;99.90;;;;;;5015445;28;20291;-69
2022/10/22 04:46:23;;;;;;;10.07;4.50;;;12.10;99.90;;;;;;5016579;28;20776;-70
2022/10/22 04:48:50;;;;;;;9.27;4.57;;;12.10;99.90;;;;;;4998116;28;20790;-70
2022/10/22 04:51:18;;;;;;;9.73;4.77;;;12.10;99.90;;;;;;5004903;28;20288;-70
2022/10/22 04:53:44;;;;;;;11.50;4.93;;;12.10;99.90;;;;;;5010461;28;20309;-70
2022/10/22 04:56:15;;;;;;;12.57;5.23;;;12.10;99.90;;;;;;5005895;28;20281;-70
2022/10/22 04:58:42;;;;;;;10.43;5.00;;;12.10;99.90;;;;;;5013038;28;20292;-70
2022/10/22 05:01:14;;;;;;;8.53;4.83;;;12.10;99.90;;;;;;5021765;28;20824;-70
2022/10/22 05:03:40;;;;;;;9.83;4.73;;;12.10;99.90;;;;;;5005472;28;20772;-70
2022/10/22 05:06:07;;;;;;;11.00;4.70;;;12.10;99.90;;;;;;5004130;28;20324;-70
2022/10/22 05:08:33;;;;;;;12.40;4.60;;;12.10;99.90;;;;;;5004448;28;20289;-70
2022/10/22 05:10:58;;;;;;;9.23;4.30;;;12.10;99.90;;;;;;5005247;28;20339;-70
2022/10/22 05:13:24;;;;;;;8.40;4.77;;;12.10;99.90;;;;;;5004862;28;20046;-70
2022/10/22 05:15:50;;;;;;;9.93;4.70;;;12.10;99.90;;;;;;4984332;28;20865;-70
2022/10/22 05:18:15;;;;;;;10.23;4.67;;;12.10;99.90;;;;;;5004099;28;20521;-70
2022/10/22 05:20:41;;;;;;;9.27;4.33;;;12.00;99.90;;;;;;5021440;28;20041;-70
2022/10/22 05:23:08;;;;;;;10.30;4.30;;;12.00;99.90;;;;;;4988739;28;20060;-70
2022/10/22 05:25:37;;;;;;;6.97;4.70;;;12.00;99.90;;;;;;4979036;28;20046;-70
2022/10/22 05:28:03;;;;;;;11.03;4.10;;;12.00;99.90;;;;;;5003971;28;20383;-70
2022/10/22 05:30:29;;;;;;;9.30;4.63;;;11.90;99.90;;;;;;5013942;28;20311;-70
2022/10/22 05:32:55;;;;;;;9.83;4.93;;;11.90;99.90;;;;;;5018855;28;20300;-70
2022/10/22 05:35:20;;;;;;;9.37;4.20;;;11.90;99.90;;;;;;5006932;28;20045;-70
2022/10/22 05:37:46;;;;;;;11.13;4.83;;;11.80;99.90;;;;;;5010301;28;20073;-70
2022/10/22 05:40:12;;;;;;;13.77;5.03;;;11.80;99.90;;;;;;5017026;28;20269;-70
2022/10/22 05:42:37;;;;;;;7.50;4.47;;;11.80;99.90;;;;;;5020253;28;20099;-70
2022/10/22 05:45:04;;;;;;;10.00;4.43;;;11.80;99.90;;;;;;5013795;28;20321;-70
2022/10/22 05:47:29;;;;;;;12.27;4.77;;;11.80;99.90;;;;;;5004504;28;20065;-70
2022/10/22 05:49:58;;;;;;;10.27;4.53;;;11.80;99.90;;;;;;4974414;28;20284;-70
2022/10/22 05:52:24;;;;;;;14.17;5.03;;;11.80;99.90;;;;;;5005394;28;20425;-70
2022/10/22 05:54:49;;;;;;;12.90;4.93;;;11.90;99.90;;;;;;5003792;28;20284;-70
2022/10/22 05:57:15;;;;;;;14.17;5.10;;;11.90;99.90;;;;;;5012654;28;20037;-70
2022/10/22 05:59:41;;;;;;;12.40;5.23;;;11.90;99.90;;;;;;5003996;28;20053;-70
2022/10/22 06:02:08;;;;;;;10.13;5.23;;;11.90;99.90;;;;;;5003924;28;20038;-70
2022/10/22 06:04:34;;;;;;;11.30;4.50;;;11.90;99.90;;;;;;5003362;28;20052;-70
2022/10/22 06:07:01;;;;;;;12.57;4.87;;;11.90;99.90;;;;;;5006084;28;20639;-70
2022/10/22 06:09:30;;;;;;;10.87;5.30;;;11.90;99.90;;;;;;4988004;28;20042;-70
2022/10/22 06:11:56;;;;;;;8.60;4.90;;;11.90;99.90;;;;;;5011966;28;20323;-70
2022/10/22 06:14:23;;;;;;;13.43;4.73;;;12.00;99.90;;;;;;5007260;28;20360;-70
2022/10/22 06:16:49;;;;;;;15.80;5.40;;;12.00;99.90;;;;;;5003168;28;20284;-70
2022/10/22 06:19:17;;;;;;;11.33;4.23;;;12.00;99.90;;;;;;4990403;28;20381;-70
2022/10/22 06:21:44;;;;;;;9.27;4.67;;;12.00;99.90;;;;;;5010849;28;20829;-70
2022/10/22 06:24:10;;;;;;;11.53;4.70;;;12.00;99.90;;;;;;5014727;28;20287;-70
2022/10/22 06:26:36;;;;;;;9.47;4.40;;;12.00;99.90;;;;;;5009704;28;20288;-70
2022/10/22 06:29:02;;;;;;;14.90;4.67;;;12.00;99.90;;;;;;4984341;28;20665;-70
2022/10/22 06:31:35;;;;;;;14.33;5.17;;;12.00;99.90;;;;;;5003734;28;20049;-70
2022/10/22 06:34:02;;;;;;;13.27;4.73;;;12.00;99.90;;;;;;5003647;28;20333;-70
2022/10/22 06:36:27;;;;;;;14.10;5.40;;;12.00;99.90;;;;;;5012127;28;20284;-70
2022/10/22 06:38:54;;;;;;;9.10;4.60;;;12.00;99.90;;;;;;5009661;28;20653;-70
2022/10/22 06:41:20;;;;;;;12.07;5.50;;;12.00;99.90;;;;;;4990458;28;20044;-70
2022/10/22 06:43:46;;;;;;;10.63;5.10;;;12.00;99.90;;;;;;4992985;28;20280;-70
2022/10/22 06:46:14;;;;;;;13.47;4.90;;;12.00;99.90;;;;;;5015302;28;20375;-70
2022/10/22 06:48:40;;;;;;;11.87;4.93;;;12.00;99.90;;;;;;4997241;28;20038;-70
2022/10/22 06:51:08;;;;;;;11.20;5.23;;;12.10;99.90;;;;;;4991176;28;20358;-70
2022/10/22 06:53:34;;;;;;;9.63;4.83;;;12.10;99.90;;;;;;5007329;28;20052;-70
2022/10/22 06:56:08;;;;;;;9.60;5.13;;;12.10;99.90;;;;;;4987810;28;20285;-70
2022/10/22 06:58:34;;;;;;;11.83;5.40;;;12.20;99.90;;;;;;4990300;28;20367;-70
2022/10/22 07:01:09;;;;;;;12.57;5.30;;;12.20;99.90;;;;;;5004349;28;20479;-70
2022/10/22 07:03:35;;;;;;;9.73;4.43;;;12.20;99.90;;;;;;4994544;28;20800;-70
2022/10/22 07:06:02;;;;;;;10.73;4.60;;;12.20;99.90;;;;;;5006819;28;20127;-70
2022/10/22 07:08:28;;;;;;;13.53;5.30;;;12.30;99.90;;;;;;5006732;28;20293;-70
2022/10/22 07:10:55;;;;;;;16.53;5.17;;;12.30;99.90;;;;;;5007015;28;20284;-70
2022/10/22 07:13:21;;;;;;;15.53;4.97;;;12.30;99.90;;;;;;5006797;28;20313;-70
2022/10/22 07:15:54;;;;;;;11.67;4.70;;;12.30;99.90;;;;;;5006733;28;20836;-70
2022/10/22 07:18:21;;;;;;;10.60;4.73;;;12.30;99.90;;;;;;4990791;28;20777;-70
2022/10/22 07:20:49;;;;;;;11.87;4.87;;;12.40;99.90;;;;;;5006790;28;20285;-70
2022/10/22 07:23:16;;;;;;;13.03;4.90;;;12.40;99.90;;;;;;4991658;28;20291;-70
2022/10/22 07:25:42;;;;;;;14.07;4.87;;;12.40;99.90;;;;;;5006421;28;20291;-70
2022/10/22 07:28:08;;;;;;;11.77;4.67;;;12.50;99.90;;;;;;5005164;28;20285;-70
2022/10/22 07:30:35;;;;;;;8.90;5.20;;;12.50;99.90;;;;;;5022932;28;20354;-70
2022/10/22 07:33:00;;;;;;;7.80;4.67;;;12.50;99.90;;;;;;5014271;28;20103;-70
2022/10/22 07:35:26;;;;;;;9.90;5.27;;;12.60;99.90;;;;;;5008346;28;20728;-70
2022/10/22 07:37:52;;;;;;;11.67;5.13;;;12.60;99.90;;;;;;5020106;28;20064;-70
2022/10/22 07:40:17;;;;;;;11.17;4.47;;;12.70;99.90;;;;;;5006850;28;20093;-70
2022/10/22 07:42:43;;;;;;;14.00;4.93;;;12.80;99.90;;;;;;4997338;28;20319;-70
2022/10/22 07:45:09;;;;;;;10.77;4.67;;;12.90;99.90;;;;;;5011013;28;20115;-70
2022/10/22 07:47:35;;;;;;;16.07;5.10;;;12.90;99.90;;;;;;5012510;28;20034;-70
2022/10/22 07:50:00;;;;;;;10.07;4.20;;;13.00;99.90;;;;;;5006903;28;20077;-70
2022/10/22 07:52:28;;;;;;;13.03;4.60;;;13.10;99.90;;;;;;5004317;28;20457;-70
2022/10/22 07:54:53;;;;;;;12.53;4.33;;;13.10;99.90;;;;;;5021494;28;20065;-70
2022/10/22 07:57:19;;;;;;;9.50;4.53;;;13.20;99.90;;;;;;5011180;28;20414;-70
2022/10/22 07:59:45;;;;;;;13.27;4.70;;;13.30;99.90;;;;;;5005406;28;20125;-70
2022/10/22 08:02:12;;;;;;;10.30;3.97;;;13.40;99.90;;;;;;5005737;28;20041;-70
2022/10/22 08:04:38;;;;;;;9.70;4.20;;;13.50;99.90;;;;;;5003710;28;20053;-70
2022/10/22 08:07:04;;;;;;;9.87;4.13;;;13.60;99.90;;;;;;5005363;28;20296;-70
2022/10/22 08:09:30;;;;;;;19.43;4.80;;;13.70;99.90;;;;;;5006695;28;20054;-70
2022/10/22 08:11:55;;;;;;;13.57;5.80;;;13.80;99.90;;;;;;5025767;28;20030;-70
2022/10/22 08:14:21;;;;;;;12.07;3.83;;;13.90;99.90;;;;;;5006019;28;20049;-70
2022/10/22 08:16:47;;;;;;;7.67;3.43;;;14.00;99.90;;;;;;5005361;28;20049;-70
2022/10/22 08:19:17;;;;;;;11.13;3.90;;;14.10;99.90;;;;;;5006439;28;20044;-70
2022/10/22 08:21:44;;;;;;;13.80;3.73;;;14.20;99.90;;;;;;5006745;28;20121;-70
2022/10/22 08:24:11;;;;;;;12.67;3.73;;;14.40;99.90;;;;;;4956095;28;20296;-70
2022/10/22 08:26:36;;;;;;;10.27;3.40;;;14.40;99.90;;;;;;5008748;28;20280;-71
2022/10/22 08:29:03;;;;;;;13.87;3.50;;;14.50;99.90;;;;;;4996221;28;20284;-71
2022/10/22 08:31:28;;;;;;;10.60;3.30;;;14.60;99.90;;;;;;5014156;28;20097;-70
2022/10/22 08:33:54;;;;;;;11.03;3.60;;;14.60;99.90;;;;;;5025185;28;20308;-69
2022/10/22 08:36:20;;;;;;;9.00;2.50;;;14.70;99.90;;;;;;4988272;28;20049;-69
2022/10/22 08:38:46;;;;;;;9.10;3.03;;;14.70;99.90;;;;;;5006355;28;20045;-70
2022/10/22 08:41:19;;;;;;;9.27;2.93;;;14.80;99.90;;;;;;4990550;28;20049;-70
2022/10/22 08:44:27;;;;;;;12.97;3.67;;;14.80;99.90;;;;;;5006603;28;20071;-70
2022/10/22 08:47:08;;;;;;;8.87;2.53;;;14.90;99.90;;;;;;5010957;28;20363;-70
2022/10/22 08:49:37;;;;;;;12.23;3.30;;;14.90;99.90;;;;;;5008213;28;20284;-70
2022/10/22 08:52:04;;;;;;;11.67;3.20;;;15.00;99.90;;;;;;4990015;28;20311;-70
2022/10/22 08:54:45;;;;;;;8.10;2.60;;;15.00;99.90;;;;;;4992250;28;20339;-70
2022/10/22 08:57:36;;;;;;;10.27;3.30;;;15.10;99.90;;;;;;4989438;28;20284;-70
2022/10/22 09:00:11;;;;;;;8.57;2.67;;;15.20;99.90;;;;;;4990121;28;20823;-70
2022/10/22 09:02:51;;;;;;;;;;;15.20;99.90;;;;;;5007027;28;20312;-70
2022/10/22 09:05:33;;;;;;;10.03;2.60;;;15.20;99.90;;;;;;4990109;28;20385;-70
2022/10/22 09:07:58;;;;;;;11.20;2.40;;;15.30;99.90;;;;;;5013221;28;20331;-70
2022/10/22 09:10:30;;;;;;;10.33;2.17;;;15.30;99.90;;;;;;5005759;28;20313;-70
2022/10/22 09:12:56;;;;;;;9.80;2.20;;;15.30;99.90;;;;;;5006766;28;20104;-70
2022/10/22 09:15:22;;;;;;;6.13;2.03;;;15.30;99.90;;;;;;4988908;28;20781;-70
2022/10/22 09:17:56;;;;;;;9.40;2.30;;;15.30;99.90;;;;;;5006152;28;20038;-70
2022/10/22 09:20:33;;;;;;;11.00;2.20;;;15.30;99.90;;;;;;5003997;28;20447;-70
2022/10/22 09:23:18;;;;;;;10.63;2.37;;;15.30;99.90;;;;;;5004791;28;20812;-70
2022/10/22 09:25:45;;;;;;;9.13;2.53;;;15.20;99.90;;;;;;5005464;28;20359;-70
2022/10/22 09:28:11;;;;;;;9.13;2.33;;;15.20;99.90;;;;;;4988823;28;20307;-70
2022/10/22 09:30:38;;;;;;;7.07;2.10;;;15.30;99.90;;;;;;4988897;28;20292;-70
2022/10/22 09:33:25;;;;;;;10.53;2.50;;;15.30;99.90;;;;;;4987820;28;20304;-70
2022/10/22 09:36:02;;;;;;;9.57;2.50;;;15.30;99.90;;;;;;5010355;28;20292;-70
2022/10/22 09:38:54;;;;;;;10.53;3.17;;;15.30;99.90;;;;;;5001711;28;20900;-70
2022/10/22 09:41:25;;;;;;;7.17;2.40;;;15.30;99.90;;;;;;5000686;28;20914;-70
2022/10/22 09:43:50;;;;;;;10.13;2.87;;;15.40;99.90;;;;;;5005028;28;20284;-70
2022/10/22 09:46:20;;;;;;;10.53;2.60;;;15.40;99.90;;;;;;5004721;28;20362;-70
2022/10/22 09:48:57;;;;;;;11.30;2.83;;;15.40;99.90;;;;;;5025882;28;20048;-70
2022/10/22 09:51:46;;;;;;;8.13;2.13;;;15.40;99.90;;;;;;5008611;28;20331;-70
2022/10/22 09:54:22;;;;;;;9.47;2.20;;;15.50;99.90;;;;;;5004144;28;20301;-70
2022/10/22 09:56:57;;;;;;;12.53;2.30;;;15.50;99.90;;;;;;4988208;28;20367;-70
2022/10/22 09:59:25;;;;;;;;;;;15.50;99.90;;;;;;5005329;28;20302;-70
2022/10/22 10:02:17;;;;;;;9.00;2.30;;;15.50;99.90;;;;;;5004209;28;20348;-70
2022/10/22 10:04:48;;;;;;;12.80;3.10;;;15.60;99.90;;;;;;5004361;28;20312;-70
2022/10/22 10:07:20;;;;;;;6.07;2.07;;;15.60;99.90;;;;;;5005025;28;20281;-70
2022/10/22 10:09:46;;;;;;;10.10;2.83;;;15.70;99.90;;;;;;5004666;28;20866;-70
2022/10/22 10:12:19;;;;;;;8.77;2.57;;;15.70;99.90;;;;;;5003909;28;20328;-70
2022/10/22 10:15:17;;;;;;;11.10;2.97;;;15.60;99.90;;;;;;5000714;28;20285;-70
2022/10/22 10:17:59;;;;;;;8.13;2.67;;;15.50;99.90;;;;;;5002862;28;20363;-69
2022/10/22 10:20:45;;;;;;;8.47;2.87;;;15.60;99.90;;;;;;5000528;28;20304;-71
2022/10/22 10:23:30;;;;;;;10.37;3.50;;;15.70;99.90;;;;;;5003913;28;20285;-70
2022/10/22 10:26:40;;;;;;;8.80;3.75;;;15.70;99.90;;;;;;5000876;28;20632;-70
2022/10/22 10:29:30;;;;;;;12.03;3.77;;;15.70;99.90;;;;;;5019856;28;20108;-70
2022/10/22 10:32:21;;;;;;;9.80;4.00;;;15.80;99.90;;;;;;4997983;28;20285;-70
2022/10/22 10:34:57;;;;;;;12.43;4.37;;;15.80;99.90;;;;;;5001391;28;20296;-70
2022/10/22 10:37:41;;;;;;;12.07;3.83;;;15.90;99.90;;;;;;5016794;28;20372;-70
2022/10/22 10:40:33;;;;;;;13.40;4.20;;;15.90;99.90;;;;;;5005601;28;20320;-70
2022/10/22 10:43:17;;;;;;;12.07;4.10;;;15.90;99.90;;;;;;5018365;28;20664;-70
2022/10/22 10:46:19;;;;;;;8.97;3.80;;;15.80;99.90;;;;;;5002978;28;20895;-71
2022/10/22 10:48:54;;;;;;;9.77;3.80;;;15.70;99.90;;;;;;5006106;28;20277;-71
2022/10/22 10:51:29;;;;;;;10.50;4.30;;;15.80;99.90;;;;;;4989514;28;20672;-71
2022/10/22 10:54:06;;;;;;;;;;;15.80;99.90;;;;;;5004485;28;20064;-70
2022/10/22 10:56:40;;;;;;;11.97;4.43;;;16.00;99.90;;;;;;5004778;28;20024;-71
2022/10/22 10:59:30;;;;;;;11.10;4.10;;;16.20;99.90;;;;;;4987055;28;20716;-70
2022/10/22 11:02:40;;;;;;;13.97;4.53;;;16.20;99.90;;;;;;5005678;28;20316;-70
2022/10/22 11:05:14;;;;;;;11.33;4.37;;;16.20;99.90;;;;;;4991882;28;20790;-71
2022/10/22 11:07:45;;;;;;;16.03;4.90;;;16.10;99.90;;;;;;5008043;28;20786;-70
2022/10/22 11:10:27;;;;;;;9.40;4.40;;;16.10;99.90;;;;;;4988029;28;20287;-70
2022/10/22 11:13:01;;;;;;;13.03;4.57;;;16.00;99.90;;;;;;5004081;28;20407;-70
2022/10/22 11:15:38;;;;;;;12.00;4.70;;;15.90;99.90;;;;;;4990587;28;20862;-70
2022/10/22 11:18:19;;;;;;;14.70;5.00;;;15.60;99.90;;;;;;4992204;28;20388;-71
2022/10/22 11:21:06;;;;;;;10.67;4.10;;;15.50;99.90;;;;;;5012497;28;20277;-71
2022/10/22 11:23:50;;;;;;;15.20;4.10;;;15.50;99.90;;;;;;5009508;28;20376;-70
2022/10/22 11:26:47;;;;;;;12.43;4.13;;;15.50;99.90;;;;;;4997969;28;20744;-70
2022/10/22 11:29:19;;;;;;;11.17;4.30;;;15.70;99.90;;;;;;5017117;28;20290;-70
2022/10/22 11:31:46;;;;;;;9.97;4.07;;;15.90;99.90;;;;;;5006337;28;20294;-71
2022/10/22 11:34:23;;;;;;;12.17;3.50;;;16.10;99.90;;;;;;5016011;28;20792;-70
2022/10/22 11:36:51;;;;;;;9.97;3.70;;;16.30;99.90;;;;;;5011800;28;20365;-70
2022/10/22 11:40:01;;;;;;;7.50;2.43;;;16.50;99.90;;;;;;5006282;28;20276;-70
2022/10/22 11:42:32;;;;;;;8.47;2.30;;;16.60;99.90;;;;;;4947159;28;20282;-70
2022/10/22 11:45:04;;;;;;;12.13;3.70;;;16.60;99.90;;;;;;5002544;28;20753;-71
2022/10/22 11:47:55;;;;;;;10.07;3.77;;;16.60;99.90;;;;;;5007233;28;20529;-71
2022/10/22 11:50:42;;;;;;;11.33;3.63;;;16.70;99.90;;;;;;5012767;28;20334;-70
2022/10/22 11:53:12;;;;;;;6.73;2.60;;;16.60;99.90;;;;;;5013187;28;20672;-70
2022/10/22 11:55:44;;;;;;;11.77;3.07;;;16.70;99.90;;;;;;4997826;28;20312;-70
2022/10/22 11:58:27;;;;;;;11.07;3.27;;;16.60;99.90;;;;;;5003983;28;20061;-71
2022/10/22 12:01:27;;;;;;;9.63;2.53;;;16.60;99.90;;;;;;5004912;28;20380;-70
2022/10/22 12:04:17;;;;;;;8.37;2.03;;;16.60;99.90;;;;;;4996954;28;20300;-70
2022/10/22 12:06:56;;;;;;;8.43;2.40;;;16.60;99.90;;;;;;5005033;28;20291;-70
2022/10/22 12:09:28;;;;;;;8.07;2.10;;;16.70;99.90;;;;;;5003006;28;20804;-70
2022/10/22 12:12:01;;;;;;;10.60;2.27;;;16.70;99.90;;;;;;4987982;28;20292;-70
2022/10/22 12:14:36;;;;;;;8.60;2.00;;;16.80;99.90;;;;;;4983686;28;20393;-70
2022/10/22 12:17:14;;;;;;;7.73;2.17;;;16.90;99.90;;;;;;5002458;28;20457;-70
2022/10/22 12:19:50;;;;;;;11.53;2.27;;;16.90;99.90;;;;;;5006339;28;20347;-70
2022/10/22 12:22:20;;;;;;;7.37;1.87;;;17.00;99.90;;;;;;5006987;28;20125;-71
2022/10/22 12:24:50;;;;;;;11.23;2.20;;;17.00;99.90;;;;;;5005822;28;20684;-70
2022/10/22 12:27:21;;;;;;;8.73;1.77;;;17.10;99.90;;;;;;5006101;28;20533;-70
2022/10/22 12:29:47;;;;;;;8.60;1.60;;;17.10;99.90;;;;;;5004501;28;20092;-71
2022/10/22 12:32:14;;;;;;;8.03;1.40;;;17.10;99.90;;;;;;5005354;28;20049;-70
2022/10/22 12:34:49;;;;;;;10.97;1.70;;;17.10;99.90;;;;;;5005604;28;20124;-71
2022/10/22 12:37:16;;;;;;;7.85;1.23;;;17.10;99.90;;;;;;5003784;28;20057;-70
2022/10/22 12:39:44;;;;;;;8.30;1.57;;;17.00;99.90;;;;;;5006772;28;20048;-70
2022/10/22 12:42:15;;;;;;;8.77;1.30;;;17.00;99.90;;;;;;5004119;28;20223;-69
2022/10/22 12:44:43;;;;;;;7.30;1.17;;;16.90;99.90;;;;;;5003243;28;20192;-69
2022/10/22 12:47:18;;;;;;;7.90;1.63;;;16.90;99.90;;;;;;5003430;28;20060;-70
2022/10/22 12:49:51;;;;;;;5.87;1.37;;;17.00;99.90;;;;;;5011656;28;20401;-70
2022/10/22 12:52:19;;;;;;;5.83;0.93;;;17.10;99.90;;;;;;5005542;28;20331;-70
2022/10/22 12:54:51;;;;;;;9.57;1.50;;;17.10;99.90;;;;;;4994619;28;20131;-69
2022/10/22 12:57:19;;;;;;;7.40;1.00;;;17.20;99.90;;;;;;5016686;28;20042;-69
2022/10/22 12:59:49;;;;;;;6.07;0.80;;;17.20;99.90;;;;;;5002940;28;20054;-70
2022/10/22 13:02:24;;;;;;;9.63;1.00;;;17.30;99.90;;;;;;5004956;28;20046;-69
2022/10/22 13:05:14;;;;;;;7.43;1.00;;;17.40;99.90;;;;;;4987676;28;20639;-69